sensor_id;sensor_type;location;lat;lon;timestamp;P1;P2;P0
10689;PMS5003;5394;27.222;78.010;2022-10-03T00:00:18;45.25;39.25;24.75
10689;PMS5003;5394;27.222;78.010;2022-10-03T00:05:43;58.25;47.25;32.00
10689;PMS5003;5394;27.222;78.010;2022-10-03T00:08:15;46.75;42.75;31.00
10689;PMS5003;5394;27.222;78.010;2022-10-03T00:10:53;46.25;42.75;28.75
10689;PMS5003;5394;27.222;78.010;2022-10-03T00:13:31;56.75;47.00;31.00
10689;PMS5003;5394;27.222;78.010;2022-10-03T00:16:08;54.00;46.75;32.25
10689;PMS5003;5394;27.222;78.010;2022-10-03T00:18:47;48.25;43.25;28.25
10689;PMS5003;5394;27.222;78.010;2022-10-03T00:21:28;52.00;45.50;31.25
10689;PMS5003;5394;27.222;78.010;2022-10-03T00:24:06;50.25;43.00;27.00
10689;PMS5003;5394;27.222;78.010;2022-10-03T00:26:41;41.75;40.00;24.00
10689;PMS5003;5394;27.222;78.010;2022-10-03T00:29:25;55.75;45.50;31.00
10689;PMS5003;5394;27.222;78.010;2022-10-03T00:32:04;54.00;46.25;32.00
10689;PMS5003;5394;27.222;78.010;2022-10-03T00:34:39;61.75;48.50;32.00
10689;PMS5003;5394;27.222;78.010;2022-10-03T00:37:20;48.75;42.25;26.75
10689;PMS5003;5394;27.222;78.010;2022-10-03T00:39:59;54.25;44.25;30.25
10689;PMS5003;5394;27.222;78.010;2022-10-03T00:42:42;55.75;46.00;31.00
10689;PMS5003;5394;27.222;78.010;2022-10-03T00:48:18;60.25;50.00;34.00
10689;PMS5003;5394;27.222;78.010;2022-10-03T00:51:04;61.20;50.00;38.60
10689;PMS5003;5394;27.222;78.010;2022-10-03T00:53:43;49.75;44.25;27.50
10689;PMS5003;5394;27.222;78.010;2022-10-03T00:56:25;51.00;45.50;30.00
10689;PMS5003;5394;27.222;78.010;2022-10-03T00:59:05;45.75;41.50;28.25
10689;PMS5003;5394;27.222;78.010;2022-10-03T01:01:43;58.75;44.00;28.00
10689;PMS5003;5394;27.222;78.010;2022-10-03T01:04:25;46.75;42.25;27.25
10689;PMS5003;5394;27.222;78.010;2022-10-03T01:07:03;55.75;46.25;32.00
10689;PMS5003;5394;27.222;78.010;2022-10-03T01:09:40;59.00;48.00;32.00
10689;PMS5003;5394;27.222;78.010;2022-10-03T01:12:34;59.50;49.75;32.50
10689;PMS5003;5394;27.222;78.010;2022-10-03T01:15:09;59.75;49.50;35.00
10689;PMS5003;5394;27.222;78.010;2022-10-03T01:17:48;63.50;53.00;37.50
10689;PMS5003;5394;27.222;78.010;2022-10-03T01:20:30;63.75;51.75;35.00
10689;PMS5003;5394;27.222;78.010;2022-10-03T01:25:53;59.75;49.00;35.00
10689;PMS5003;5394;27.222;78.010;2022-10-03T01:28:41;58.50;44.50;28.00
10689;PMS5003;5394;27.222;78.010;2022-10-03T01:31:36;62.00;53.25;36.50
10689;PMS5003;5394;27.222;78.010;2022-10-03T01:34:12;62.00;52.75;35.75
10689;PMS5003;5394;27.222;78.010;2022-10-03T01:36:50;68.25;55.50;36.75
10689;PMS5003;5394;27.222;78.010;2022-10-03T01:39:25;55.00;45.80;31.40
10689;PMS5003;5394;27.222;78.010;2022-10-03T01:41:57;68.60;55.60;38.80
10689;PMS5003;5394;27.222;78.010;2022-10-03T01:44:37;33.00;31.50;21.25
10689;PMS5003;5394;27.222;78.010;2022-10-03T01:47:15;52.50;47.50;34.25
10689;PMS5003;5394;27.222;78.010;2022-10-03T01:49:51;57.75;48.00;32.00
10689;PMS5003;5394;27.222;78.010;2022-10-03T01:52:26;56.50;46.50;32.00
10689;PMS5003;5394;27.222;78.010;2022-10-03T01:55:02;52.50;43.00;30.75
10689;PMS5003;5394;27.222;78.010;2022-10-03T01:57:37;55.75;47.25;33.00
10689;PMS5003;5394;27.222;78.010;2022-10-03T02:00:13;63.25;51.00;35.00
10689;PMS5003;5394;27.222;78.010;2022-10-03T02:02:46;54.00;46.50;31.25
10689;PMS5003;5394;27.222;78.010;2022-10-03T02:05:22;61.00;50.00;34.50
10689;PMS5003;5394;27.222;78.010;2022-10-03T02:07:58;56.50;47.00;33.75
10689;PMS5003;5394;27.222;78.010;2022-10-03T02:10:34;60.50;49.50;34.50
10689;PMS5003;5394;27.222;78.010;2022-10-03T02:13:11;57.25;48.00;30.50
10689;PMS5003;5394;27.222;78.010;2022-10-03T02:15:52;57.50;47.25;31.00
10689;PMS5003;5394;27.222;78.010;2022-10-03T02:18:28;56.75;47.00;33.25
10689;PMS5003;5394;27.222;78.010;2022-10-03T02:21:08;60.75;51.50;34.50
10689;PMS5003;5394;27.222;78.010;2022-10-03T02:23:41;48.75;42.25;29.00
10689;PMS5003;5394;27.222;78.010;2022-10-03T02:29:08;62.25;49.25;34.50
10689;PMS5003;5394;27.222;78.010;2022-10-03T02:31:59;61.25;51.25;34.75
10689;PMS5003;5394;27.222;78.010;2022-10-03T02:48:53;64.00;51.50;33.00
10689;PMS5003;5394;27.222;78.010;2022-10-03T02:51:34;62.25;51.00;34.00
10689;PMS5003;5394;27.222;78.010;2022-10-03T02:54:31;59.50;49.00;34.25
10689;PMS5003;5394;27.222;78.010;2022-10-03T03:00:10;55.25;46.25;31.00
10689;PMS5003;5394;27.222;78.010;2022-10-03T03:02:57;54.25;46.75;32.50
10689;PMS5003;5394;27.222;78.010;2022-10-03T03:11:39;57.50;49.25;34.50
10689;PMS5003;5394;27.222;78.010;2022-10-03T03:14:27;60.75;50.50;34.00
10689;PMS5003;5394;27.222;78.010;2022-10-03T03:17:12;51.25;44.50;31.25
10689;PMS5003;5394;27.222;78.010;2022-10-03T03:19:59;46.25;42.50;31.00
10689;PMS5003;5394;27.222;78.010;2022-10-03T03:22:35;57.75;49.00;32.00
10689;PMS5003;5394;27.222;78.010;2022-10-03T03:25:24;52.25;44.25;30.25
10689;PMS5003;5394;27.222;78.010;2022-10-03T03:28:05;54.50;46.00;34.75
10689;PMS5003;5394;27.222;78.010;2022-10-03T03:30:43;51.25;45.25;32.00
10689;PMS5003;5394;27.222;78.010;2022-10-03T03:33:21;57.75;47.00;31.00
10689;PMS5003;5394;27.222;78.010;2022-10-03T03:35:58;56.75;46.00;32.00
10689;PMS5003;5394;27.222;78.010;2022-10-03T03:38:34;58.75;44.75;30.25
10689;PMS5003;5394;27.222;78.010;2022-10-03T03:41:17;50.25;42.50;29.00
10689;PMS5003;5394;27.222;78.010;2022-10-03T03:43:56;54.50;45.50;29.00
10689;PMS5003;5394;27.222;78.010;2022-10-03T03:46:38;53.00;42.75;29.00
10689;PMS5003;5394;27.222;78.010;2022-10-03T03:49:16;51.75;42.25;28.75
10689;PMS5003;5394;27.222;78.010;2022-10-03T03:51:54;51.75;42.75;30.00
10689;PMS5003;5394;27.222;78.010;2022-10-03T03:54:35;46.80;40.60;29.00
10689;PMS5003;5394;27.222;78.010;2022-10-03T03:57:18;51.75;44.25;30.00
10689;PMS5003;5394;27.222;78.010;2022-10-03T04:02:58;47.50;43.50;30.00
10689;PMS5003;5394;27.222;78.010;2022-10-03T04:05:45;61.50;49.50;33.00
10689;PMS5003;5394;27.222;78.010;2022-10-03T04:08:27;58.75;48.25;34.00
10689;PMS5003;5394;27.222;78.010;2022-10-03T04:11:06;58.80;46.80;32.60
10689;PMS5003;5394;27.222;78.010;2022-10-03T04:13:46;51.00;43.50;30.00
10689;PMS5003;5394;27.222;78.010;2022-10-03T04:16:26;50.60;43.40;29.80
10689;PMS5003;5394;27.222;78.010;2022-10-03T04:19:22;48.20;42.40;31.00
10689;PMS5003;5394;27.222;78.010;2022-10-03T04:22:03;45.80;41.80;28.00
10689;PMS5003;5394;27.222;78.010;2022-10-03T04:24:43;45.20;40.00;26.00
10689;PMS5003;5394;27.222;78.010;2022-10-03T04:30:18;56.80;44.60;30.60
10689;PMS5003;5394;27.222;78.010;2022-10-03T04:32:54;47.20;40.60;28.00
10689;PMS5003;5394;27.222;78.010;2022-10-03T04:35:34;52.50;44.00;30.00
10689;PMS5003;5394;27.222;78.010;2022-10-03T04:38:14;52.60;45.00;30.20
10689;PMS5003;5394;27.222;78.010;2022-10-03T04:40:52;37.50;33.25;20.25
10689;PMS5003;5394;27.222;78.010;2022-10-03T04:43:30;47.50;42.50;27.50
10689;PMS5003;5394;27.222;78.010;2022-10-03T04:46:13;55.40;44.60;30.00
10689;PMS5003;5394;27.222;78.010;2022-10-03T04:48:49;45.80;40.80;28.60
10689;PMS5003;5394;27.222;78.010;2022-10-03T04:51:27;53.60;44.80;29.80
10689;PMS5003;5394;27.222;78.010;2022-10-03T04:54:09;55.00;43.80;30.00
10689;PMS5003;5394;27.222;78.010;2022-10-03T04:56:46;49.20;40.80;29.40
10689;PMS5003;5394;27.222;78.010;2022-10-03T04:59:28;27.00;23.80;9.80
10689;PMS5003;5394;27.222;78.010;2022-10-03T05:02:06;45.00;42.00;29.00
10689;PMS5003;5394;27.222;78.010;2022-10-03T05:04:42;47.00;41.80;29.40
10689;PMS5003;5394;27.222;78.010;2022-10-03T05:07:19;46.20;41.00;28.00
10689;PMS5003;5394;27.222;78.010;2022-10-03T05:09:53;52.20;41.20;28.60
10689;PMS5003;5394;27.222;78.010;2022-10-03T05:12:33;57.40;47.00;30.40
10689;PMS5003;5394;27.222;78.010;2022-10-03T05:15:13;51.40;44.00;30.00
10689;PMS5003;5394;27.222;78.010;2022-10-03T05:17:51;48.80;41.20;28.80
10689;PMS5003;5394;27.222;78.010;2022-10-03T05:23:25;49.80;40.80;27.00
10689;PMS5003;5394;27.222;78.010;2022-10-03T05:26:04;52.60;43.00;29.40
10689;PMS5003;5394;27.222;78.010;2022-10-03T05:29:00;50.60;41.60;28.40
10689;PMS5003;5394;27.222;78.010;2022-10-03T05:31:36;35.20;33.40;21.40
10689;PMS5003;5394;27.222;78.010;2022-10-03T05:34:17;52.60;43.80;29.00
10689;PMS5003;5394;27.222;78.010;2022-10-03T05:37:02;46.60;40.60;28.00
10689;PMS5003;5394;27.222;78.010;2022-10-03T05:39:41;45.00;40.40;27.80
10689;PMS5003;5394;27.222;78.010;2022-10-03T05:42:27;42.60;38.60;26.20
10689;PMS5003;5394;27.222;78.010;2022-10-03T05:45:03;37.60;35.60;24.00
10689;PMS5003;5394;27.222;78.010;2022-10-03T05:47:46;41.60;37.40;25.60
10689;PMS5003;5394;27.222;78.010;2022-10-03T05:53:08;42.60;38.80;27.00
10689;PMS5003;5394;27.222;78.010;2022-10-03T05:55:52;40.40;36.80;24.60
10689;PMS5003;5394;27.222;78.010;2022-10-03T05:58:38;34.60;34.00;25.20
10689;PMS5003;5394;27.222;78.010;2022-10-03T06:01:33;43.20;39.00;27.00
10689;PMS5003;5394;27.222;78.010;2022-10-03T06:04:21;42.60;37.60;25.60
10689;PMS5003;5394;27.222;78.010;2022-10-03T06:07:02;43.00;40.00;27.00
10689;PMS5003;5394;27.222;78.010;2022-10-03T06:12:32;42.20;35.00;23.00
10689;PMS5003;5394;27.222;78.010;2022-10-03T06:15:23;43.20;39.20;27.40
10689;PMS5003;5394;27.222;78.010;2022-10-03T06:18:01;34.80;34.60;26.00
10689;PMS5003;5394;27.222;78.010;2022-10-03T06:20:56;42.00;36.80;26.40
10689;PMS5003;5394;27.222;78.010;2022-10-03T06:23:42;32.20;31.20;22.20
10689;PMS5003;5394;27.222;78.010;2022-10-03T06:32:12;37.00;33.80;23.60
10689;PMS5003;5394;27.222;78.010;2022-10-03T06:35:00;36.80;35.60;25.60
10689;PMS5003;5394;27.222;78.010;2022-10-03T06:37:51;29.40;25.60;18.00
10689;PMS5003;5394;27.222;78.010;2022-10-03T06:40:43;33.20;30.40;23.40
10689;PMS5003;5394;27.222;78.010;2022-10-03T06:43:31;29.80;29.00;19.60
10689;PMS5003;5394;27.222;78.010;2022-10-03T06:46:24;30.80;29.40;20.40
10689;PMS5003;5394;27.222;78.010;2022-10-03T06:51:58;30.80;27.20;19.00
10689;PMS5003;5394;27.222;78.010;2022-10-03T06:54:49;24.00;22.20;18.20
10689;PMS5003;5394;27.222;78.010;2022-10-03T06:57:33;25.20;22.60;13.60
10689;PMS5003;5394;27.222;78.010;2022-10-03T07:00:16;21.00;17.40;9.00
10689;PMS5003;5394;27.222;78.010;2022-10-03T07:03:05;21.20;18.40;12.40
10689;PMS5003;5394;27.222;78.010;2022-10-03T07:11:41;19.20;15.40;9.80
10689;PMS5003;5394;27.222;78.010;2022-10-03T07:25:57;24.40;23.60;17.60
10689;PMS5003;5394;27.222;78.010;2022-10-03T07:28:49;18.20;18.00;13.20
10689;PMS5003;5394;27.222;78.010;2022-10-03T07:31:33;23.00;22.40;15.00
10689;PMS5003;5394;27.222;78.010;2022-10-03T07:46:24;16.60;16.60;12.20
10689;PMS5003;5394;27.222;78.010;2022-10-03T07:49:06;24.80;23.60;18.00
10689;PMS5003;5394;27.222;78.010;2022-10-03T07:51:48;21.20;20.40;15.80
10689;PMS5003;5394;27.222;78.010;2022-10-03T07:54:42;19.60;19.20;15.40
10689;PMS5003;5394;27.222;78.010;2022-10-03T07:57:25;19.00;16.80;12.80
10689;PMS5003;5394;27.222;78.010;2022-10-03T08:00:16;24.20;22.60;16.80
10689;PMS5003;5394;27.222;78.010;2022-10-03T08:03:18;18.40;17.60;12.00
10689;PMS5003;5394;27.222;78.010;2022-10-03T08:06:09;23.20;22.20;17.00
10689;PMS5003;5394;27.222;78.010;2022-10-03T08:11:39;18.00;16.80;9.20
10689;PMS5003;5394;27.222;78.010;2022-10-03T08:14:17;12.80;11.80;5.20
10689;PMS5003;5394;27.222;78.010;2022-10-03T08:17:05;23.40;21.00;15.00
10689;PMS5003;5394;27.222;78.010;2022-10-03T08:19:49;19.00;18.60;13.20
10689;PMS5003;5394;27.222;78.010;2022-10-03T08:22:30;11.80;11.20;6.40
10689;PMS5003;5394;27.222;78.010;2022-10-03T08:25:26;19.20;18.00;13.00
10689;PMS5003;5394;27.222;78.010;2022-10-03T08:34:04;17.60;15.60;10.60
10689;PMS5003;5394;27.222;78.010;2022-10-03T08:36:51;18.00;15.00;12.00
10689;PMS5003;5394;27.222;78.010;2022-10-03T08:39:45;18.60;18.60;13.00
10689;PMS5003;5394;27.222;78.010;2022-10-03T08:42:31;18.60;18.40;13.00
10689;PMS5003;5394;27.222;78.010;2022-10-03T08:45:23;16.00;12.00;7.00
10689;PMS5003;5394;27.222;78.010;2022-10-03T08:50:59;18.20;17.00;11.40
10689;PMS5003;5394;27.222;78.010;2022-10-03T08:53:51;23.80;21.60;13.80
10689;PMS5003;5394;27.222;78.010;2022-10-03T08:56:34;13.20;12.80;8.80
10689;PMS5003;5394;27.222;78.010;2022-10-03T09:07:51;18.40;17.20;14.60
10689;PMS5003;5394;27.222;78.010;2022-10-03T09:10:36;15.40;13.80;10.00
10689;PMS5003;5394;27.222;78.010;2022-10-03T09:13:17;19.00;16.80;12.20
10689;PMS5003;5394;27.222;78.010;2022-10-03T09:16:01;22.20;17.60;12.80
10689;PMS5003;5394;27.222;78.010;2022-10-03T09:18:47;16.40;14.60;11.80
10689;PMS5003;5394;27.222;78.010;2022-10-03T09:24:32;9.40;7.40;4.00
10689;PMS5003;5394;27.222;78.010;2022-10-03T09:27:30;13.40;12.00;9.00
10689;PMS5003;5394;27.222;78.010;2022-10-03T09:30:14;14.60;14.00;9.00
10689;PMS5003;5394;27.222;78.010;2022-10-03T09:35:38;12.80;12.60;9.60
10689;PMS5003;5394;27.222;78.010;2022-10-03T09:38:30;10.40;9.60;7.00
10689;PMS5003;5394;27.222;78.010;2022-10-03T09:41:16;15.20;14.20;12.00
10689;PMS5003;5394;27.222;78.010;2022-10-03T09:46:53;12.00;11.00;6.00
10689;PMS5003;5394;27.222;78.010;2022-10-03T09:52:36;7.20;4.80;2.00
10689;PMS5003;5394;27.222;78.010;2022-10-03T09:58:21;14.80;13.20;9.20
10689;PMS5003;5394;27.222;78.010;2022-10-03T10:06:55;14.00;12.80;9.40
10689;PMS5003;5394;27.222;78.010;2022-10-03T10:09:45;16.00;14.60;11.80
10689;PMS5003;5394;27.222;78.010;2022-10-03T10:15:21;16.80;14.80;12.00
10689;PMS5003;5394;27.222;78.010;2022-10-03T10:23:37;16.20;15.40;11.00
10689;PMS5003;5394;27.222;78.010;2022-10-03T10:32:12;15.40;14.00;10.00
10689;PMS5003;5394;27.222;78.010;2022-10-03T10:35:06;17.40;15.80;12.00
10689;PMS5003;5394;27.222;78.010;2022-10-03T10:52:05;16.60;14.40;12.00
10689;PMS5003;5394;27.222;78.010;2022-10-03T10:57:46;17.20;17.20;12.80
10689;PMS5003;5394;27.222;78.010;2022-10-03T11:00:25;18.80;16.60;12.80
10689;PMS5003;5394;27.222;78.010;2022-10-03T11:12:04;8.60;7.60;4.40
10689;PMS5003;5394;27.222;78.010;2022-10-03T11:20:28;14.40;14.40;12.00
10689;PMS5003;5394;27.222;78.010;2022-10-03T11:29:15;21.60;19.00;13.60
10689;PMS5003;5394;27.222;78.010;2022-10-03T11:34:50;20.20;19.60;14.60
10689;PMS5003;5394;27.222;78.010;2022-10-03T11:37:36;19.00;16.00;13.80
10689;PMS5003;5394;27.222;78.010;2022-10-03T11:40:15;23.40;19.20;15.00
10689;PMS5003;5394;27.222;78.010;2022-10-03T11:42:52;15.60;15.00;11.00
10689;PMS5003;5394;27.222;78.010;2022-10-03T11:45:28;18.80;18.60;13.60
10689;PMS5003;5394;27.222;78.010;2022-10-03T11:48:06;20.40;19.20;14.80
10689;PMS5003;5394;27.222;78.010;2022-10-03T11:50:42;18.40;17.60;14.00
10689;PMS5003;5394;27.222;78.010;2022-10-03T11:56:06;10.80;10.80;5.40
10689;PMS5003;5394;27.222;78.010;2022-10-03T11:58:48;14.60;11.60;6.80
10689;PMS5003;5394;27.222;78.010;2022-10-03T12:01:28;18.00;14.40;12.00
10689;PMS5003;5394;27.222;78.010;2022-10-03T12:04:07;13.20;12.60;10.20
10689;PMS5003;5394;27.222;78.010;2022-10-03T12:09:59;9.00;8.40;4.80
10689;PMS5003;5394;27.222;78.010;2022-10-03T12:12:35;9.80;9.40;3.00
10689;PMS5003;5394;27.222;78.010;2022-10-03T12:15:13;11.80;11.20;6.00
10689;PMS5003;5394;27.222;78.010;2022-10-03T12:17:52;13.00;12.00;6.80
10689;PMS5003;5394;27.222;78.010;2022-10-03T12:20:29;15.60;13.60;9.00
10689;PMS5003;5394;27.222;78.010;2022-10-03T12:23:07;11.20;11.00;6.20
10689;PMS5003;5394;27.222;78.010;2022-10-03T12:25:47;10.00;8.40;3.20
10689;PMS5003;5394;27.222;78.010;2022-10-03T12:28:20;14.00;14.00;10.20
10689;PMS5003;5394;27.222;78.010;2022-10-03T12:30:53;15.00;12.60;8.40
10689;PMS5003;5394;27.222;78.010;2022-10-03T12:33:35;12.20;12.20;5.60
10689;PMS5003;5394;27.222;78.010;2022-10-03T12:36:11;12.80;11.80;7.60
10689;PMS5003;5394;27.222;78.010;2022-10-03T12:38:47;11.00;8.80;3.20
10689;PMS5003;5394;27.222;78.010;2022-10-03T12:41:24;9.80;9.00;6.20
10689;PMS5003;5394;27.222;78.010;2022-10-03T12:44:07;13.40;13.00;8.20
10689;PMS5003;5394;27.222;78.010;2022-10-03T12:46:45;19.40;16.00;9.00
10689;PMS5003;5394;27.222;78.010;2022-10-03T12:49:26;18.40;17.00;11.00
10689;PMS5003;5394;27.222;78.010;2022-10-03T12:52:05;28.20;27.40;18.00
10689;PMS5003;5394;27.222;78.010;2022-10-03T12:54:45;16.60;15.20;12.00
10689;PMS5003;5394;27.222;78.010;2022-10-03T12:57:41;26.80;24.60;17.60
10689;PMS5003;5394;27.222;78.010;2022-10-03T13:00:16;22.60;21.80;17.00
10689;PMS5003;5394;27.222;78.010;2022-10-03T13:02:58;22.80;21.60;13.40
10689;PMS5003;5394;27.222;78.010;2022-10-03T13:05:37;29.40;29.00;19.80
10689;PMS5003;5394;27.222;78.010;2022-10-03T13:08:17;29.60;27.00;19.20
10689;PMS5003;5394;27.222;78.010;2022-10-03T13:10:54;25.20;21.40;16.20
10689;PMS5003;5394;27.222;78.010;2022-10-03T13:13:27;20.80;19.60;11.60
10689;PMS5003;5394;27.222;78.010;2022-10-03T13:16:10;28.00;25.00;17.60
10689;PMS5003;5394;27.222;78.010;2022-10-03T13:18:46;29.20;28.20;21.40
10689;PMS5003;5394;27.222;78.010;2022-10-03T13:21:22;29.00;26.00;17.40
10689;PMS5003;5394;27.222;78.010;2022-10-03T13:24:20;21.80;18.00;11.00
10689;PMS5003;5394;27.222;78.010;2022-10-03T13:26:57;13.20;13.20;6.60
10689;PMS5003;5394;27.222;78.010;2022-10-03T13:29:33;20.75;17.75;12.00
10689;PMS5003;5394;27.222;78.010;2022-10-03T13:32:11;31.50;31.50;26.25
10689;PMS5003;5394;27.222;78.010;2022-10-03T13:34:52;20.25;16.50;13.25
10689;PMS5003;5394;27.222;78.010;2022-10-03T13:37:30;190.60;188.40;179.20
10689;PMS5003;5394;27.222;78.010;2022-10-03T13:40:05;211.25;209.25;190.50
10689;PMS5003;5394;27.222;78.010;2022-10-03T13:42:38;131.00;128.25;128.00
10689;PMS5003;5394;27.222;78.010;2022-10-03T13:45:13;8.40;7.00;7.00
10689;PMS5003;5394;27.222;78.010;2022-10-03T13:47:48;23.00;21.00;16.20
10689;PMS5003;5394;27.222;78.010;2022-10-03T13:50:24;23.20;20.60;12.00
10689;PMS5003;5394;27.222;78.010;2022-10-03T13:53:02;15.20;14.00;10.60
10689;PMS5003;5394;27.222;78.010;2022-10-03T13:55:40;22.00;21.00;16.40
10689;PMS5003;5394;27.222;78.010;2022-10-03T13:58:16;31.80;30.00;24.00
10689;PMS5003;5394;27.222;78.010;2022-10-03T14:00:59;24.80;21.20;11.80
10689;PMS5003;5394;27.222;78.010;2022-10-03T14:03:34;17.20;16.80;7.60
10689;PMS5003;5394;27.222;78.010;2022-10-03T14:06:12;16.60;13.80;7.40
10689;PMS5003;5394;27.222;78.010;2022-10-03T14:11:40;22.20;19.20;12.60
10689;PMS5003;5394;27.222;78.010;2022-10-03T14:14:24;21.80;21.40;14.20
10689;PMS5003;5394;27.222;78.010;2022-10-03T14:17:04;28.40;24.40;16.80
10689;PMS5003;5394;27.222;78.010;2022-10-03T14:19:42;19.40;18.40;10.60
10689;PMS5003;5394;27.222;78.010;2022-10-03T14:27:56;16.00;14.80;7.00
10689;PMS5003;5394;27.222;78.010;2022-10-03T14:30:33;26.20;22.40;16.20
10689;PMS5003;5394;27.222;78.010;2022-10-03T14:33:29;26.40;26.00;14.60
10689;PMS5003;5394;27.222;78.010;2022-10-03T14:36:06;24.20;21.40;12.00
10689;PMS5003;5394;27.222;78.010;2022-10-03T14:41:37;27.20;25.00;17.40
10689;PMS5003;5394;27.222;78.010;2022-10-03T14:44:12;34.60;28.20;18.40
10689;PMS5003;5394;27.222;78.010;2022-10-03T14:46:49;15.40;14.60;7.20
10689;PMS5003;5394;27.222;78.010;2022-10-03T14:49:23;29.80;25.60;13.80
10689;PMS5003;5394;27.222;78.010;2022-10-03T14:52:21;20.20;18.60;11.20
10689;PMS5003;5394;27.222;78.010;2022-10-03T14:54:55;27.20;27.20;17.20
10689;PMS5003;5394;27.222;78.010;2022-10-03T14:57:29;27.80;26.40;17.60
10689;PMS5003;5394;27.222;78.010;2022-10-03T15:00:25;18.00;16.40;10.20
10689;PMS5003;5394;27.222;78.010;2022-10-03T15:02:58;35.20;33.20;23.80
10689;PMS5003;5394;27.222;78.010;2022-10-03T15:05:50;32.80;31.00;23.60
10689;PMS5003;5394;27.222;78.010;2022-10-03T15:08:28;31.00;31.00;23.00
10689;PMS5003;5394;27.222;78.010;2022-10-03T15:11:04;35.00;31.40;23.20
10689;PMS5003;5394;27.222;78.010;2022-10-03T15:13:37;35.80;31.40;22.00
10689;PMS5003;5394;27.222;78.010;2022-10-03T15:16:13;32.00;30.60;21.00
10689;PMS5003;5394;27.222;78.010;2022-10-03T15:18:49;39.60;36.00;25.00
10689;PMS5003;5394;27.222;78.010;2022-10-03T15:21:22;38.60;36.00;25.00
10689;PMS5003;5394;27.222;78.010;2022-10-03T15:23:56;35.60;34.60;24.80
10689;PMS5003;5394;27.222;78.010;2022-10-03T15:26:30;31.20;30.60;23.60
10689;PMS5003;5394;27.222;78.010;2022-10-03T15:29:05;33.00;31.60;23.20
10689;PMS5003;5394;27.222;78.010;2022-10-03T15:31:39;37.00;35.60;23.00
10689;PMS5003;5394;27.222;78.010;2022-10-03T15:34:15;31.80;30.20;20.80
10689;PMS5003;5394;27.222;78.010;2022-10-03T15:36:48;31.60;25.60;17.20
10689;PMS5003;5394;27.222;78.010;2022-10-03T15:39:23;41.00;39.00;28.20
10689;PMS5003;5394;27.222;78.010;2022-10-03T15:41:55;31.00;30.80;20.60
10689;PMS5003;5394;27.222;78.010;2022-10-03T15:44:33;36.00;33.00;23.20
10689;PMS5003;5394;27.222;78.010;2022-10-03T15:47:11;29.20;27.60;18.80
10689;PMS5003;5394;27.222;78.010;2022-10-03T15:49:43;62.25;52.25;34.75
10689;PMS5003;5394;27.222;78.010;2022-10-03T15:52:19;52.75;45.00;33.25
10689;PMS5003;5394;27.222;78.010;2022-10-03T15:54:52;59.00;47.50;33.50
10689;PMS5003;5394;27.222;78.010;2022-10-03T15:57:39;51.25;42.00;28.50
10689;PMS5003;5394;27.222;78.010;2022-10-03T16:00:22;57.75;47.25;32.00
10689;PMS5003;5394;27.222;78.010;2022-10-03T16:02:59;55.75;46.25;30.75
10689;PMS5003;5394;27.222;78.010;2022-10-03T16:05:35;55.40;45.20;30.00
10689;PMS5003;5394;27.222;78.010;2022-10-03T16:08:08;29.60;29.20;23.80
10689;PMS5003;5394;27.222;78.010;2022-10-03T16:10:43;34.20;32.80;22.20
10689;PMS5003;5394;27.222;78.010;2022-10-03T16:13:22;31.80;29.60;18.20
10689;PMS5003;5394;27.222;78.010;2022-10-03T16:16:07;34.60;31.40;21.80
10689;PMS5003;5394;27.222;78.010;2022-10-03T16:18:49;48.00;40.00;28.00
10689;PMS5003;5394;27.222;78.010;2022-10-03T16:21:26;40.80;37.60;27.20
10689;PMS5003;5394;27.222;78.010;2022-10-03T16:24:00;34.80;34.20;24.00
10689;PMS5003;5394;27.222;78.010;2022-10-03T16:26:33;38.40;37.80;26.60
10689;PMS5003;5394;27.222;78.010;2022-10-03T16:29:11;42.80;40.20;28.20
10689;PMS5003;5394;27.222;78.010;2022-10-03T16:31:45;44.60;39.40;27.60
10689;PMS5003;5394;27.222;78.010;2022-10-03T16:34:22;42.60;39.00;28.00
10689;PMS5003;5394;27.222;78.010;2022-10-03T16:36:55;63.40;52.20;42.40
10689;PMS5003;5394;27.222;78.010;2022-10-03T16:39:29;36.60;34.00;25.60
10689;PMS5003;5394;27.222;78.010;2022-10-03T16:42:08;45.00;41.50;29.00
10689;PMS5003;5394;27.222;78.010;2022-10-03T16:44:41;40.00;38.00;26.20
10689;PMS5003;5394;27.222;78.010;2022-10-03T16:47:23;38.00;35.80;24.80
10689;PMS5003;5394;27.222;78.010;2022-10-03T16:49:59;26.60;22.20;13.40
10689;PMS5003;5394;27.222;78.010;2022-10-03T16:52:49;32.40;30.00;17.40
10689;PMS5003;5394;27.222;78.010;2022-10-03T16:55:22;67.25;55.50;41.50
10689;PMS5003;5394;27.222;78.010;2022-10-03T16:57:56;30.80;30.40;23.60
10689;PMS5003;5394;27.222;78.010;2022-10-03T17:00:31;28.60;21.60;16.00
10689;PMS5003;5394;27.222;78.010;2022-10-03T17:03:04;28.25;24.50;17.75
10689;PMS5003;5394;27.222;78.010;2022-10-03T17:05:47;19.40;17.60;16.40
10689;PMS5003;5394;27.222;78.010;2022-10-03T17:08:20;41.60;39.20;28.20
10689;PMS5003;5394;27.222;78.010;2022-10-03T17:11:11;37.80;34.80;23.00
10689;PMS5003;5394;27.222;78.010;2022-10-03T17:13:47;26.60;25.40;17.00
10689;PMS5003;5394;27.222;78.010;2022-10-03T17:16:24;37.20;35.80;25.40
10689;PMS5003;5394;27.222;78.010;2022-10-03T17:19:01;27.20;25.60;16.60
10689;PMS5003;5394;27.222;78.010;2022-10-03T17:21:39;35.60;29.00;20.00
10689;PMS5003;5394;27.222;78.010;2022-10-03T17:24:13;40.20;37.80;28.00
10689;PMS5003;5394;27.222;78.010;2022-10-03T17:26:47;43.40;39.40;25.80
10689;PMS5003;5394;27.222;78.010;2022-10-03T17:29:21;35.00;32.60;20.80
10689;PMS5003;5394;27.222;78.010;2022-10-03T17:31:57;40.00;36.80;28.00
10689;PMS5003;5394;27.222;78.010;2022-10-03T17:34:32;40.40;37.40;25.40
10689;PMS5003;5394;27.222;78.010;2022-10-03T17:37:08;21.80;17.00;9.80
10689;PMS5003;5394;27.222;78.010;2022-10-03T17:39:47;45.75;41.00;29.00
10689;PMS5003;5394;27.222;78.010;2022-10-03T17:42:25;41.00;38.40;28.00
10689;PMS5003;5394;27.222;78.010;2022-10-03T17:45:02;43.60;38.00;26.00
10689;PMS5003;5394;27.222;78.010;2022-10-03T17:47:43;47.25;41.75;28.75
10689;PMS5003;5394;27.222;78.010;2022-10-03T17:50:17;28.60;26.80;16.60
10689;PMS5003;5394;27.222;78.010;2022-10-03T17:52:54;50.00;42.50;34.25
10689;PMS5003;5394;27.222;78.010;2022-10-03T17:55:26;31.00;28.00;20.00
10689;PMS5003;5394;27.222;78.010;2022-10-03T17:58:02;21.75;21.50;19.00
10689;PMS5003;5394;27.222;78.010;2022-10-03T18:00:35;69.75;56.50;42.75
10689;PMS5003;5394;27.222;78.010;2022-10-03T18:03:09;58.00;49.50;40.75
10689;PMS5003;5394;27.222;78.010;2022-10-03T18:05:44;100.20;89.80;82.40
10689;PMS5003;5394;27.222;78.010;2022-10-03T18:08:18;53.50;45.50;36.25
10689;PMS5003;5394;27.222;78.010;2022-10-03T18:10:53;59.50;50.50;37.00
10689;PMS5003;5394;27.222;78.010;2022-10-03T18:13:26;27.80;26.60;16.60
10689;PMS5003;5394;27.222;78.010;2022-10-03T18:16:03;19.00;16.50;10.00
10689;PMS5003;5394;27.222;78.010;2022-10-03T18:18:46;36.00;35.00;24.60